East Muncy, Pennsylvania
Current Conditions -  °F | °C
As of 6:54 PM on Thursday 27 Nov 2014 (Local Time) from KIPT Reporting Station
Overcast Overcast  
Wind Chill: 27°   Ceiling: 4800
Heat Index: 32°   Visibility: 10mi
Dew Point: 27°   Wind: 5mph
Humidity: 82%   Direction: 330°NNW
Pressure: 30.07"   Gusts: NA
Location:  41.225°N, 76.7388°W
Report Text: KIPT 272354Z 33004KT 10SM BKN048 OVC075 00/M03 A3007 RMK AO2 SLP189 T00001028 10022 21006 51013
Loading
Personal Weather Stations






























Interactive Weather Map New forecast layout! Learn more

10-Day Weather Forecast

Advertisements
Track Severe Weather on mobile